sensor_id;sensor_type;location;lat;lon;timestamp;temperature;humidity
55135;DHT22;41031;44.750;11.308;2023-04-25T00:02:19;13.10;90.00
55135;DHT22;41031;44.750;11.308;2023-04-25T00:04:46;13.10;90.00
55135;DHT22;41031;44.750;11.308;2023-04-25T00:07:16;13.10;90.00
55135;DHT22;41031;44.750;11.308;2023-04-25T00:09:44;13.10;90.10
55135;DHT22;41031;44.750;11.308;2023-04-25T00:12:11;13.10;90.10
55135;DHT22;41031;44.750;11.308;2023-04-25T00:14:38;13.20;90.10
55135;DHT22;41031;44.750;11.308;2023-04-25T00:17:05;13.20;90.10
55135;DHT22;41031;44.750;11.308;2023-04-25T00:19:32;13.20;90.10
55135;DHT22;41031;44.750;11.308;2023-04-25T00:22:01;13.20;90.10
55135;DHT22;41031;44.750;11.308;2023-04-25T00:24:28;13.30;90.10
55135;DHT22;41031;44.750;11.308;2023-04-25T00:26:55;13.20;90.10
55135;DHT22;41031;44.750;11.308;2023-04-25T00:29:22;13.30;90.10
55135;DHT22;41031;44.750;11.308;2023-04-25T00:31:49;13.30;90.00
55135;DHT22;41031;44.750;11.308;2023-04-25T00:34:16;13.30;90.00
55135;DHT22;41031;44.750;11.308;2023-04-25T00:36:43;13.40;90.00
55135;DHT22;41031;44.750;11.308;2023-04-25T00:39:11;13.40;89.90
55135;DHT22;41031;44.750;11.308;2023-04-25T00:41:38;13.40;89.80
55135;DHT22;41031;44.750;11.308;2023-04-25T00:44:08;13.40;89.70
55135;DHT22;41031;44.750;11.308;2023-04-25T00:46:39;13.40;89.60
55135;DHT22;41031;44.750;11.308;2023-04-25T00:49:06;13.40;89.50
55135;DHT22;41031;44.750;11.308;2023-04-25T00:51:34;13.40;89.40
55135;DHT22;41031;44.750;11.308;2023-04-25T00:54:02;13.40;89.40
55135;DHT22;41031;44.750;11.308;2023-04-25T00:56:29;13.40;89.30
55135;DHT22;41031;44.750;11.308;2023-04-25T00:58:57;13.40;89.30
55135;DHT22;41031;44.750;11.308;2023-04-25T01:01:24;13.40;89.30
55135;DHT22;41031;44.750;11.308;2023-04-25T01:03:53;13.40;89.20
55135;DHT22;41031;44.750;11.308;2023-04-25T01:06:21;13.40;89.20
55135;DHT22;41031;44.750;11.308;2023-04-25T01:08:49;13.40;89.20
55135;DHT22;41031;44.750;11.308;2023-04-25T01:11:16;13.40;89.30
55135;DHT22;41031;44.750;11.308;2023-04-25T01:13:43;13.40;89.30
55135;DHT22;41031;44.750;11.308;2023-04-25T01:16:10;13.40;89.40
55135;DHT22;41031;44.750;11.308;2023-04-25T01:18:39;13.40;89.40
55135;DHT22;41031;44.750;11.308;2023-04-25T01:21:09;13.40;89.50
55135;DHT22;41031;44.750;11.308;2023-04-25T01:23:41;13.30;89.60
55135;DHT22;41031;44.750;11.308;2023-04-25T01:26:10;13.30;89.60
55135;DHT22;41031;44.750;11.308;2023-04-25T01:28:38;13.30;89.70
55135;DHT22;41031;44.750;11.308;2023-04-25T01:31:09;13.30;89.70
55135;DHT22;41031;44.750;11.308;2023-04-25T01:33:37;13.30;89.70
55135;DHT22;41031;44.750;11.308;2023-04-25T01:36:05;13.30;89.70
55135;DHT22;41031;44.750;11.308;2023-04-25T01:38:34;13.30;89.80
55135;DHT22;41031;44.750;11.308;2023-04-25T01:41:02;13.30;89.90
55135;DHT22;41031;44.750;11.308;2023-04-25T01:43:29;13.30;90.00
55135;DHT22;41031;44.750;11.308;2023-04-25T01:45:56;13.30;90.00
55135;DHT22;41031;44.750;11.308;2023-04-25T01:48:24;13.20;90.00
55135;DHT22;41031;44.750;11.308;2023-04-25T01:50:51;13.30;90.10
55135;DHT22;41031;44.750;11.308;2023-04-25T01:53:18;13.30;90.10
55135;DHT22;41031;44.750;11.308;2023-04-25T01:55:46;13.20;90.10
55135;DHT22;41031;44.750;11.308;2023-04-25T01:58:15;13.20;90.10
55135;DHT22;41031;44.750;11.308;2023-04-25T02:01:08;13.20;90.10
55135;DHT22;41031;44.750;11.308;2023-04-25T02:03:43;13.20;90.10
55135;DHT22;41031;44.750;11.308;2023-04-25T02:06:19;13.20;90.20
55135;DHT22;41031;44.750;11.308;2023-04-25T02:08:48;13.10;90.20
55135;DHT22;41031;44.750;11.308;2023-04-25T02:11:15;13.10;90.30
55135;DHT22;41031;44.750;11.308;2023-04-25T02:14:11;13.10;90.30
55135;DHT22;41031;44.750;11.308;2023-04-25T02:16:54;13.10;90.30
55135;DHT22;41031;44.750;11.308;2023-04-25T02:19:22;13.10;90.30
55135;DHT22;41031;44.750;11.308;2023-04-25T02:21:49;13.00;90.30
55135;DHT22;41031;44.750;11.308;2023-04-25T02:24:16;13.00;90.30
55135;DHT22;41031;44.750;11.308;2023-04-25T02:26:43;13.00;90.30
55135;DHT22;41031;44.750;11.308;2023-04-25T02:29:12;13.00;90.30
55135;DHT22;41031;44.750;11.308;2023-04-25T02:31:41;13.00;90.30
55135;DHT22;41031;44.750;11.308;2023-04-25T02:34:09;13.00;90.20
55135;DHT22;41031;44.750;11.308;2023-04-25T02:36:38;13.00;90.20
55135;DHT22;41031;44.750;11.308;2023-04-25T02:39:05;13.00;90.20
55135;DHT22;41031;44.750;11.308;2023-04-25T02:41:32;13.00;90.10
55135;DHT22;41031;44.750;11.308;2023-04-25T02:43:59;13.00;90.10
55135;DHT22;41031;44.750;11.308;2023-04-25T02:46:26;13.00;90.00
55135;DHT22;41031;44.750;11.308;2023-04-25T02:49:06;13.00;90.00
55135;DHT22;41031;44.750;11.308;2023-04-25T02:51:34;13.00;90.00
55135;DHT22;41031;44.750;11.308;2023-04-25T02:54:01;13.00;90.00
55135;DHT22;41031;44.750;11.308;2023-04-25T02:56:29;12.90;89.80
55135;DHT22;41031;44.750;11.308;2023-04-25T02:58:57;12.90;89.80
55135;DHT22;41031;44.750;11.308;2023-04-25T03:01:24;12.90;89.70
55135;DHT22;41031;44.750;11.308;2023-04-25T03:03:51;12.90;89.60
55135;DHT22;41031;44.750;11.308;2023-04-25T03:06:19;12.90;89.60
55135;DHT22;41031;44.750;11.308;2023-04-25T03:08:46;12.80;89.60
55135;DHT22;41031;44.750;11.308;2023-04-25T03:11:14;12.80;89.70
55135;DHT22;41031;44.750;11.308;2023-04-25T03:13:42;12.80;89.60
55135;DHT22;41031;44.750;11.308;2023-04-25T03:16:10;12.80;89.50
55135;DHT22;41031;44.750;11.308;2023-04-25T03:18:37;12.80;89.40
55135;DHT22;41031;44.750;11.308;2023-04-25T03:21:04;12.70;89.90
55135;DHT22;41031;44.750;11.308;2023-04-25T03:23:31;12.70;89.30
55135;DHT22;41031;44.750;11.308;2023-04-25T03:25:57;12.70;89.40
55135;DHT22;41031;44.750;11.308;2023-04-25T03:28:25;12.60;89.50
55135;DHT22;41031;44.750;11.308;2023-04-25T03:30:52;12.50;89.70
55135;DHT22;41031;44.750;11.308;2023-04-25T03:33:20;12.50;89.80
55135;DHT22;41031;44.750;11.308;2023-04-25T03:35:48;12.50;90.00
55135;DHT22;41031;44.750;11.308;2023-04-25T03:38:17;12.40;90.00
55135;DHT22;41031;44.750;11.308;2023-04-25T03:40:44;12.40;90.10
55135;DHT22;41031;44.750;11.308;2023-04-25T03:43:23;12.40;90.10
55135;DHT22;41031;44.750;11.308;2023-04-25T03:45:56;12.40;90.10
55135;DHT22;41031;44.750;11.308;2023-04-25T03:48:25;12.40;90.10
55135;DHT22;41031;44.750;11.308;2023-04-25T03:50:54;12.30;90.10
55135;DHT22;41031;44.750;11.308;2023-04-25T03:53:21;12.30;90.10
55135;DHT22;41031;44.750;11.308;2023-04-25T03:56:09;12.30;90.20
55135;DHT22;41031;44.750;11.308;2023-04-25T03:58:38;12.30;90.20
55135;DHT22;41031;44.750;11.308;2023-04-25T04:01:05;12.30;90.30
55135;DHT22;41031;44.750;11.308;2023-04-25T04:03:37;12.30;90.30
55135;DHT22;41031;44.750;11.308;2023-04-25T04:06:06;12.30;90.30
55135;DHT22;41031;44.750;11.308;2023-04-25T04:08:40;12.30;90.30
55135;DHT22;41031;44.750;11.308;2023-04-25T04:11:08;12.20;90.30
55135;DHT22;41031;44.750;11.308;2023-04-25T04:13:36;12.20;90.30
55135;DHT22;41031;44.750;11.308;2023-04-25T04:16:03;12.20;90.40
55135;DHT22;41031;44.750;11.308;2023-04-25T04:18:31;12.20;90.40
55135;DHT22;41031;44.750;11.308;2023-04-25T04:21:01;12.20;90.40
55135;DHT22;41031;44.750;11.308;2023-04-25T04:23:31;12.20;90.50
55135;DHT22;41031;44.750;11.308;2023-04-25T04:25:59;12.20;90.50
55135;DHT22;41031;44.750;11.308;2023-04-25T04:28:26;12.20;90.50
55135;DHT22;41031;44.750;11.308;2023-04-25T04:31:20;12.20;90.60
55135;DHT22;41031;44.750;11.308;2023-04-25T04:33:48;12.10;90.60
55135;DHT22;41031;44.750;11.308;2023-04-25T04:36:16;12.10;90.60
55135;DHT22;41031;44.750;11.308;2023-04-25T04:38:47;12.20;90.70
55135;DHT22;41031;44.750;11.308;2023-04-25T04:41:22;12.10;90.70
55135;DHT22;41031;44.750;11.308;2023-04-25T04:44:01;12.20;90.80
55135;DHT22;41031;44.750;11.308;2023-04-25T04:46:50;12.20;90.70
55135;DHT22;41031;44.750;11.308;2023-04-25T04:49:46;12.30;90.70
55135;DHT22;41031;44.750;11.308;2023-04-25T04:52:42;12.30;90.80
55135;DHT22;41031;44.750;11.308;2023-04-25T04:55:28;12.30;90.90
55135;DHT22;41031;44.750;11.308;2023-04-25T04:58:07;12.30;91.10
55135;DHT22;41031;44.750;11.308;2023-04-25T05:00:43;12.40;91.20
55135;DHT22;41031;44.750;11.308;2023-04-25T05:03:25;12.40;91.30
55135;DHT22;41031;44.750;11.308;2023-04-25T05:06:06;12.50;91.30
55135;DHT22;41031;44.750;11.308;2023-04-25T05:08:54;12.50;91.30
55135;DHT22;41031;44.750;11.308;2023-04-25T05:11:35;12.60;91.30
55135;DHT22;41031;44.750;11.308;2023-04-25T05:14:12;12.60;91.30
55135;DHT22;41031;44.750;11.308;2023-04-25T05:16:39;12.70;91.30
55135;DHT22;41031;44.750;11.308;2023-04-25T05:19:35;12.70;91.30
55135;DHT22;41031;44.750;11.308;2023-04-25T05:22:25;12.80;91.30
55135;DHT22;41031;44.750;11.308;2023-04-25T05:25:19;12.80;91.40
55135;DHT22;41031;44.750;11.308;2023-04-25T05:28:10;12.80;91.40
55135;DHT22;41031;44.750;11.308;2023-04-25T05:30:56;12.80;91.50
55135;DHT22;41031;44.750;11.308;2023-04-25T05:33:37;12.80;91.60
55135;DHT22;41031;44.750;11.308;2023-04-25T05:36:05;12.90;91.70
55135;DHT22;41031;44.750;11.308;2023-04-25T05:38:33;13.00;91.70
55135;DHT22;41031;44.750;11.308;2023-04-25T05:41:13;13.10;91.80
55135;DHT22;41031;44.750;11.308;2023-04-25T05:43:43;13.20;91.70
55135;DHT22;41031;44.750;11.308;2023-04-25T05:46:32;13.20;91.70
55135;DHT22;41031;44.750;11.308;2023-04-25T05:49:11;13.30;91.70
55135;DHT22;41031;44.750;11.308;2023-04-25T05:51:56;13.30;91.70
55135;DHT22;41031;44.750;11.308;2023-04-25T05:54:46;13.40;91.70
55135;DHT22;41031;44.750;11.308;2023-04-25T05:57:21;13.50;91.70
55135;DHT22;41031;44.750;11.308;2023-04-25T05:59:49;13.60;91.80
55135;DHT22;41031;44.750;11.308;2023-04-25T06:02:17;13.60;91.80
55135;DHT22;41031;44.750;11.308;2023-04-25T06:04:44;13.70;91.80
55135;DHT22;41031;44.750;11.308;2023-04-25T06:07:12;13.70;91.80
55135;DHT22;41031;44.750;11.308;2023-04-25T06:09:40;13.80;91.80
55135;DHT22;41031;44.750;11.308;2023-04-25T06:12:08;13.90;91.80
55135;DHT22;41031;44.750;11.308;2023-04-25T06:14:36;13.90;91.80
55135;DHT22;41031;44.750;11.308;2023-04-25T06:17:03;14.00;91.80
55135;DHT22;41031;44.750;11.308;2023-04-25T06:19:38;14.10;91.70
55135;DHT22;41031;44.750;11.308;2023-04-25T06:22:05;14.20;91.40
55135;DHT22;41031;44.750;11.308;2023-04-25T06:24:37;14.20;91.30
55135;DHT22;41031;44.750;11.308;2023-04-25T06:27:05;14.20;91.20
55135;DHT22;41031;44.750;11.308;2023-04-25T06:29:32;14.30;91.30
55135;DHT22;41031;44.750;11.308;2023-04-25T06:31:59;14.30;91.30
55135;DHT22;41031;44.750;11.308;2023-04-25T06:34:26;14.40;91.30
55135;DHT22;41031;44.750;11.308;2023-04-25T06:36:53;14.60;91.30
55135;DHT22;41031;44.750;11.308;2023-04-25T06:39:20;14.70;91.20
55135;DHT22;41031;44.750;11.308;2023-04-25T06:41:50;14.70;90.70
55135;DHT22;41031;44.750;11.308;2023-04-25T06:44:37;14.80;90.70
55135;DHT22;41031;44.750;11.308;2023-04-25T06:47:07;14.90;90.60
55135;DHT22;41031;44.750;11.308;2023-04-25T06:49:34;14.90;90.50
55135;DHT22;41031;44.750;11.308;2023-04-25T06:52:02;14.90;90.50
55135;DHT22;41031;44.750;11.308;2023-04-25T06:54:29;14.90;90.40
55135;DHT22;41031;44.750;11.308;2023-04-25T06:57:06;15.00;90.40
55135;DHT22;41031;44.750;11.308;2023-04-25T06:59:34;15.10;90.60
55135;DHT22;41031;44.750;11.308;2023-04-25T07:02:02;15.20;90.60
55135;DHT22;41031;44.750;11.308;2023-04-25T07:04:30;15.30;90.60
55135;DHT22;41031;44.750;11.308;2023-04-25T07:06:58;15.30;90.60
55135;DHT22;41031;44.750;11.308;2023-04-25T07:09:35;15.40;91.00
55135;DHT22;41031;44.750;11.308;2023-04-25T07:12:04;15.50;90.70
55135;DHT22;41031;44.750;11.308;2023-04-25T07:14:32;15.60;90.80
55135;DHT22;41031;44.750;11.308;2023-04-25T07:17:00;15.80;90.40
55135;DHT22;41031;44.750;11.308;2023-04-25T07:19:29;15.80;90.40
55135;DHT22;41031;44.750;11.308;2023-04-25T07:22:00;15.80;90.40
55135;DHT22;41031;44.750;11.308;2023-04-25T07:24:27;15.90;90.50
55135;DHT22;41031;44.750;11.308;2023-04-25T07:26:55;15.90;90.30
55135;DHT22;41031;44.750;11.308;2023-04-25T07:29:32;15.90;90.60
55135;DHT22;41031;44.750;11.308;2023-04-25T07:32:00;15.90;90.20
55135;DHT22;41031;44.750;11.308;2023-04-25T07:34:27;15.80;90.10
55135;DHT22;41031;44.750;11.308;2023-04-25T07:36:54;15.70;90.30
55135;DHT22;41031;44.750;11.308;2023-04-25T07:39:22;15.70;90.50
55135;DHT22;41031;44.750;11.308;2023-04-25T07:41:50;15.60;90.20
55135;DHT22;41031;44.750;11.308;2023-04-25T07:44:24;15.40;89.80
55135;DHT22;41031;44.750;11.308;2023-04-25T07:46:53;15.20;87.80
55135;DHT22;41031;44.750;11.308;2023-04-25T07:49:20;14.90;86.60
55135;DHT22;41031;44.750;11.308;2023-04-25T07:51:48;14.70;87.30
55135;DHT22;41031;44.750;11.308;2023-04-25T07:54:18;14.50;87.00
55135;DHT22;41031;44.750;11.308;2023-04-25T07:56:53;14.30;87.90
55135;DHT22;41031;44.750;11.308;2023-04-25T07:59:26;14.20;88.20
55135;DHT22;41031;44.750;11.308;2023-04-25T08:01:57;14.00;88.40
55135;DHT22;41031;44.750;11.308;2023-04-25T08:04:25;14.00;89.00
55135;DHT22;41031;44.750;11.308;2023-04-25T08:07:04;13.90;89.20
55135;DHT22;41031;44.750;11.308;2023-04-25T08:09:39;13.80;89.50
55135;DHT22;41031;44.750;11.308;2023-04-25T08:12:12;13.70;89.80
55135;DHT22;41031;44.750;11.308;2023-04-25T08:14:39;13.70;90.00
55135;DHT22;41031;44.750;11.308;2023-04-25T08:17:06;13.80;90.10
55135;DHT22;41031;44.750;11.308;2023-04-25T08:19:39;13.70;89.90
55135;DHT22;41031;44.750;11.308;2023-04-25T08:22:11;13.70;89.40
55135;DHT22;41031;44.750;11.308;2023-04-25T08:24:53;13.70;89.70
55135;DHT22;41031;44.750;11.308;2023-04-25T08:27:21;13.70;88.80
55135;DHT22;41031;44.750;11.308;2023-04-25T08:29:48;13.80;87.90
55135;DHT22;41031;44.750;11.308;2023-04-25T08:32:16;13.80;87.00
55135;DHT22;41031;44.750;11.308;2023-04-25T08:34:56;13.80;85.90
55135;DHT22;41031;44.750;11.308;2023-04-25T08:37:23;13.90;85.70
55135;DHT22;41031;44.750;11.308;2023-04-25T08:40:01;13.90;83.60
55135;DHT22;41031;44.750;11.308;2023-04-25T08:43:06;13.90;84.20
55135;DHT22;41031;44.750;11.308;2023-04-25T08:45:42;14.00;84.00
55135;DHT22;41031;44.750;11.308;2023-04-25T08:48:16;14.20;83.70
55135;DHT22;41031;44.750;11.308;2023-04-25T08:50:49;14.70;82.20
55135;DHT22;41031;44.750;11.308;2023-04-25T08:53:22;15.20;80.00
55135;DHT22;41031;44.750;11.308;2023-04-25T08:55:57;15.60;78.00
55135;DHT22;41031;44.750;11.308;2023-04-25T08:58:24;15.80;77.30
55135;DHT22;41031;44.750;11.308;2023-04-25T09:00:52;15.90;75.00
55135;DHT22;41031;44.750;11.308;2023-04-25T09:03:22;16.00;76.30
55135;DHT22;41031;44.750;11.308;2023-04-25T09:05:51;16.00;74.60
55135;DHT22;41031;44.750;11.308;2023-04-25T09:08:18;16.00;74.40
55135;DHT22;41031;44.750;11.308;2023-04-25T09:10:45;16.10;76.30
55135;DHT22;41031;44.750;11.308;2023-04-25T09:13:13;16.10;76.60
55135;DHT22;41031;44.750;11.308;2023-04-25T09:16:09;16.20;75.50
55135;DHT22;41031;44.750;11.308;2023-04-25T09:18:54;16.30;74.40
55135;DHT22;41031;44.750;11.308;2023-04-25T09:21:22;16.40;75.00
55135;DHT22;41031;44.750;11.308;2023-04-25T09:23:50;16.40;74.30
55135;DHT22;41031;44.750;11.308;2023-04-25T09:26:20;16.40;73.90
55135;DHT22;41031;44.750;11.308;2023-04-25T09:28:48;16.40;72.80
55135;DHT22;41031;44.750;11.308;2023-04-25T09:31:24;16.40;73.80
55135;DHT22;41031;44.750;11.308;2023-04-25T09:33:59;16.40;72.40
55135;DHT22;41031;44.750;11.308;2023-04-25T09:36:31;16.40;71.50
55135;DHT22;41031;44.750;11.308;2023-04-25T09:39:12;16.30;72.00
55135;DHT22;41031;44.750;11.308;2023-04-25T09:41:47;16.20;72.20
55135;DHT22;41031;44.750;11.308;2023-04-25T09:44:15;16.20;72.90
55135;DHT22;41031;44.750;11.308;2023-04-25T09:46:44;16.10;73.90
55135;DHT22;41031;44.750;11.308;2023-04-25T09:49:21;16.20;74.20
55135;DHT22;41031;44.750;11.308;2023-04-25T09:52:19;16.30;74.60
55135;DHT22;41031;44.750;11.308;2023-04-25T09:55:00;16.40;71.20
55135;DHT22;41031;44.750;11.308;2023-04-25T09:57:33;16.50;70.70
55135;DHT22;41031;44.750;11.308;2023-04-25T10:00:01;16.60;70.10
55135;DHT22;41031;44.750;11.308;2023-04-25T10:02:42;16.60;70.40
55135;DHT22;41031;44.750;11.308;2023-04-25T10:05:16;16.60;71.70
55135;DHT22;41031;44.750;11.308;2023-04-25T10:07:44;16.70;71.30
55135;DHT22;41031;44.750;11.308;2023-04-25T10:10:15;16.90;70.50
55135;DHT22;41031;44.750;11.308;2023-04-25T10:12:44;16.90;71.00
55135;DHT22;41031;44.750;11.308;2023-04-25T10:15:11;17.00;71.00
55135;DHT22;41031;44.750;11.308;2023-04-25T10:17:39;17.00;70.70
55135;DHT22;41031;44.750;11.308;2023-04-25T10:20:07;17.10;71.70
55135;DHT22;41031;44.750;11.308;2023-04-25T10:22:44;17.10;70.90
55135;DHT22;41031;44.750;11.308;2023-04-25T10:25:13;17.20;71.70
55135;DHT22;41031;44.750;11.308;2023-04-25T10:27:41;17.30;71.90
55135;DHT22;41031;44.750;11.308;2023-04-25T10:30:10;17.40;71.20
55135;DHT22;41031;44.750;11.308;2023-04-25T10:32:39;17.40;71.90
55135;DHT22;41031;44.750;11.308;2023-04-25T10:35:18;17.60;72.60
55135;DHT22;41031;44.750;11.308;2023-04-25T10:38:08;17.90;70.60
55135;DHT22;41031;44.750;11.308;2023-04-25T10:40:36;18.20;70.50
55135;DHT22;41031;44.750;11.308;2023-04-25T10:46:01;18.60;68.80
55135;DHT22;41031;44.750;11.308;2023-04-25T10:48:31;18.60;68.10
55135;DHT22;41031;44.750;11.308;2023-04-25T10:53:35;18.50;67.10
55135;DHT22;41031;44.750;11.308;2023-04-25T10:58:48;18.30;67.60
55135;DHT22;41031;44.750;11.308;2023-04-25T11:01:24;18.20;66.80
55135;DHT22;41031;44.750;11.308;2023-04-25T11:03:57;18.10;67.80
55135;DHT22;41031;44.750;11.308;2023-04-25T11:07:34;18.00;68.10
55135;DHT22;41031;44.750;11.308;2023-04-25T11:09:35;18.00;68.80
55135;DHT22;41031;44.750;11.308;2023-04-25T11:12:02;17.90;69.10
55135;DHT22;41031;44.750;11.308;2023-04-25T11:14:29;17.80;68.80
55135;DHT22;41031;44.750;11.308;2023-04-25T11:16:57;17.80;69.70
55135;DHT22;41031;44.750;11.308;2023-04-25T11:19:27;17.80;70.60
55135;DHT22;41031;44.750;11.308;2023-04-25T11:21:59;17.80;71.00
55135;DHT22;41031;44.750;11.308;2023-04-25T11:24:30;17.80;70.90
55135;DHT22;41031;44.750;11.308;2023-04-25T11:27:02;17.80;70.50
55135;DHT22;41031;44.750;11.308;2023-04-25T11:29:31;17.80;71.00
55135;DHT22;41031;44.750;11.308;2023-04-25T11:31:58;17.70;71.50
55135;DHT22;41031;44.750;11.308;2023-04-25T11:34:26;17.70;72.50
55135;DHT22;41031;44.750;11.308;2023-04-25T11:36:53;17.70;72.70
55135;DHT22;41031;44.750;11.308;2023-04-25T11:39:21;17.70;72.70
55135;DHT22;41031;44.750;11.308;2023-04-25T11:41:48;17.70;73.00
55135;DHT22;41031;44.750;11.308;2023-04-25T11:44:18;17.80;73.60
55135;DHT22;41031;44.750;11.308;2023-04-25T11:46:46;17.80;72.90
55135;DHT22;41031;44.750;11.308;2023-04-25T11:49:14;17.70;71.80
55135;DHT22;41031;44.750;11.308;2023-04-25T11:51:45;17.70;72.20
55135;DHT22;41031;44.750;11.308;2023-04-25T11:54:13;17.70;72.40
55135;DHT22;41031;44.750;11.308;2023-04-25T11:56:44;17.60;72.30
55135;DHT22;41031;44.750;11.308;2023-04-25T11:59:12;17.60;72.60
55135;DHT22;41031;44.750;11.308;2023-04-25T12:01:48;17.50;71.70
55135;DHT22;41031;44.750;11.308;2023-04-25T12:04:21;17.50;71.40
55135;DHT22;41031;44.750;11.308;2023-04-25T12:06:53;17.40;72.30
55135;DHT22;41031;44.750;11.308;2023-04-25T12:09:28;17.50;72.50
55135;DHT22;41031;44.750;11.308;2023-04-25T12:11:56;17.50;70.80
55135;DHT22;41031;44.750;11.308;2023-04-25T12:14:29;17.50;72.70
55135;DHT22;41031;44.750;11.308;2023-04-25T12:16:59;17.60;71.90
55135;DHT22;41031;44.750;11.308;2023-04-25T12:19:32;17.70;71.00
55135;DHT22;41031;44.750;11.308;2023-04-25T12:22:01;17.70;72.20
55135;DHT22;41031;44.750;11.308;2023-04-25T12:24:33;17.90;72.80
55135;DHT22;41031;44.750;11.308;2023-04-25T12:27:06;18.00;71.80
55135;DHT22;41031;44.750;11.308;2023-04-25T12:29:35;18.20;72.80
55135;DHT22;41031;44.750;11.308;2023-04-25T12:32:15;18.50;72.90
55135;DHT22;41031;44.750;11.308;2023-04-25T12:34:43;18.80;70.80
55135;DHT22;41031;44.750;11.308;2023-04-25T12:37:10;19.00;69.50
55135;DHT22;41031;44.750;11.308;2023-04-25T12:39:38;19.10;69.70
55135;DHT22;41031;44.750;11.308;2023-04-25T12:42:05;19.10;70.10
55135;DHT22;41031;44.750;11.308;2023-04-25T12:44:35;19.00;68.80
55135;DHT22;41031;44.750;11.308;2023-04-25T12:47:03;18.80;68.50
55135;DHT22;41031;44.750;11.308;2023-04-25T12:49:31;18.70;67.70
55135;DHT22;41031;44.750;11.308;2023-04-25T12:51:58;18.60;68.10
55135;DHT22;41031;44.750;11.308;2023-04-25T12:54:25;18.60;68.50
55135;DHT22;41031;44.750;11.308;2023-04-25T12:56:52;18.70;68.90
55135;DHT22;41031;44.750;11.308;2023-04-25T12:59:19;18.80;68.60
55135;DHT22;41031;44.750;11.308;2023-04-25T13:01:47;18.90;69.30
55135;DHT22;41031;44.750;11.308;2023-04-25T13:04:15;18.90;69.40
55135;DHT22;41031;44.750;11.308;2023-04-25T13:06:43;19.10;69.60
55135;DHT22;41031;44.750;11.308;2023-04-25T13:09:10;19.30;70.00
55135;DHT22;41031;44.750;11.308;2023-04-25T13:11:39;19.40;68.40
55135;DHT22;41031;44.750;11.308;2023-04-25T13:14:07;19.30;67.70
55135;DHT22;41031;44.750;11.308;2023-04-25T13:16:34;19.20;68.10
55135;DHT22;41031;44.750;11.308;2023-04-25T13:19:02;19.10;67.80
55135;DHT22;41031;44.750;11.308;2023-04-25T13:21:30;19.10;68.20
55135;DHT22;41031;44.750;11.308;2023-04-25T13:23:59;19.20;68.20
55135;DHT22;41031;44.750;11.308;2023-04-25T13:26:26;19.40;67.90
55135;DHT22;41031;44.750;11.308;2023-04-25T13:28:53;19.60;66.90
55135;DHT22;41031;44.750;11.308;2023-04-25T13:31:20;19.90;66.60
55135;DHT22;41031;44.750;11.308;2023-04-25T13:33:48;20.00;65.60
55135;DHT22;41031;44.750;11.308;2023-04-25T13:36:15;20.20;64.80
55135;DHT22;41031;44.750;11.308;2023-04-25T13:38:42;20.40;63.90
55135;DHT22;41031;44.750;11.308;2023-04-25T13:41:10;20.60;64.00
55135;DHT22;41031;44.750;11.308;2023-04-25T13:43:42;20.60;64.10
55135;DHT22;41031;44.750;11.308;2023-04-25T13:46:09;20.70;64.70
55135;DHT22;41031;44.750;11.308;2023-04-25T13:48:56;20.80;65.00
55135;DHT22;41031;44.750;11.308;2023-04-25T13:51:35;20.80;64.50
55135;DHT22;41031;44.750;11.308;2023-04-25T13:54:02;20.60;65.10
55135;DHT22;41031;44.750;11.308;2023-04-25T13:56:29;20.30;64.90
55135;DHT22;41031;44.750;11.308;2023-04-25T13:58:56;19.90;65.10
55135;DHT22;41031;44.750;11.308;2023-04-25T14:01:23;19.60;66.30
55135;DHT22;41031;44.750;11.308;2023-04-25T14:03:50;19.20;67.50
55135;DHT22;41031;44.750;11.308;2023-04-25T14:06:18;19.00;67.60
55135;DHT22;41031;44.750;11.308;2023-04-25T14:08:50;18.80;67.30
55135;DHT22;41031;44.750;11.308;2023-04-25T14:11:17;18.70;67.90
55135;DHT22;41031;44.750;11.308;2023-04-25T14:13:45;18.50;68.30
55135;DHT22;41031;44.750;11.308;2023-04-25T14:16:12;18.50;68.80
55135;DHT22;41031;44.750;11.308;2023-04-25T14:18:40;18.50;69.10
55135;DHT22;41031;44.750;11.308;2023-04-25T14:21:07;18.60;69.00
55135;DHT22;41031;44.750;11.308;2023-04-25T14:23:34;18.60;68.60
55135;DHT22;41031;44.750;11.308;2023-04-25T14:26:01;18.60;68.50
55135;DHT22;41031;44.750;11.308;2023-04-25T14:28:29;18.60;68.40
55135;DHT22;41031;44.750;11.308;2023-04-25T14:30:56;18.60;67.80
55135;DHT22;41031;44.750;11.308;2023-04-25T14:33:23;18.50;68.30
55135;DHT22;41031;44.750;11.308;2023-04-25T14:35:50;18.50;68.30
55135;DHT22;41031;44.750;11.308;2023-04-25T14:38:17;18.50;68.30
55135;DHT22;41031;44.750;11.308;2023-04-25T14:40:45;18.50;68.60
55135;DHT22;41031;44.750;11.308;2023-04-25T14:43:12;18.50;68.60
55135;DHT22;41031;44.750;11.308;2023-04-25T14:45:39;18.50;67.90
55135;DHT22;41031;44.750;11.308;2023-04-25T14:48:06;18.50;68.70
55135;DHT22;41031;44.750;11.308;2023-04-25T14:50:33;18.50;68.70
55135;DHT22;41031;44.750;11.308;2023-04-25T14:53:00;18.60;69.10
55135;DHT22;41031;44.750;11.308;2023-04-25T14:55:28;18.60;69.10
55135;DHT22;41031;44.750;11.308;2023-04-25T14:57:55;18.70;66.80
55135;DHT22;41031;44.750;11.308;2023-04-25T15:00:23;18.60;66.20
55135;DHT22;41031;44.750;11.308;2023-04-25T15:02:51;18.60;66.50
55135;DHT22;41031;44.750;11.308;2023-04-25T15:05:19;18.50;67.40
55135;DHT22;41031;44.750;11.308;2023-04-25T15:07:46;18.50;67.00
55135;DHT22;41031;44.750;11.308;2023-04-25T15:10:14;18.40;66.60
55135;DHT22;41031;44.750;11.308;2023-04-25T15:12:43;18.40;66.70
55135;DHT22;41031;44.750;11.308;2023-04-25T15:15:13;18.30;67.50
55135;DHT22;41031;44.750;11.308;2023-04-25T15:17:52;18.20;67.70
55135;DHT22;41031;44.750;11.308;2023-04-25T15:20:24;18.20;68.00
55135;DHT22;41031;44.750;11.308;2023-04-25T15:22:51;18.10;68.10
55135;DHT22;41031;44.750;11.308;2023-04-25T15:25:18;18.10;68.30
55135;DHT22;41031;44.750;11.308;2023-04-25T15:27:46;18.10;68.10
55135;DHT22;41031;44.750;11.308;2023-04-25T15:30:16;18.10;67.40
55135;DHT22;41031;44.750;11.308;2023-04-25T15:32:44;18.00;67.40
55135;DHT22;41031;44.750;11.308;2023-04-25T15:35:12;18.00;67.90
55135;DHT22;41031;44.750;11.308;2023-04-25T15:37:40;18.10;67.50
55135;DHT22;41031;44.750;11.308;2023-04-25T15:40:15;18.10;67.40
55135;DHT22;41031;44.750;11.308;2023-04-25T15:42:44;18.20;67.30
55135;DHT22;41031;44.750;11.308;2023-04-25T15:45:19;18.20;66.80
55135;DHT22;41031;44.750;11.308;2023-04-25T15:47:46;18.20;66.60